createdAt,value
2023-01-17T00:01:34.179Z,95994.41
2023-01-17T00:04:19.649Z,96005.75
2023-01-17T00:07:05.330Z,95993.59
2023-01-17T00:09:50.673Z,95998.19
2023-01-17T00:12:17.737Z,95992.97
2023-01-17T00:14:44.797Z,95988.41
2023-01-17T00:17:11.529Z,95990.22
2023-01-17T00:19:57.164Z,95984.50
2023-01-17T00:22:48.333Z,95983.88
2023-01-17T00:25:39.154Z,95988.91
2023-01-17T00:28:06.263Z,96014.03
2023-01-17T00:30:33.188Z,95989.13
2023-01-17T00:33:00.478Z,95977.00
2023-01-17T00:35:29.825Z,95979.94
2023-01-17T00:38:05.703Z,95994.16
2023-01-17T00:40:33.850Z,95985.00
2023-01-17T00:43:19.426Z,95988.72
2023-01-17T00:46:05.689Z,95982.25
2023-01-17T00:48:53.638Z,95987.78
2023-01-17T00:51:40.579Z,95970.75
2023-01-17T00:54:26.416Z,95976.94
2023-01-17T00:57:12.418Z,95973.69
2023-01-17T00:59:58.176Z,95954.84
2023-01-17T01:02:44.823Z,95938.09
2023-01-17T01:05:32.130Z,95915.38
2023-01-17T01:08:17.936Z,95907.34
2023-01-17T01:11:04.497Z,95911.44
2023-01-17T01:13:51.125Z,95897.16
2023-01-17T01:16:37.911Z,95923.91
2023-01-17T01:19:23.912Z,95918.16
2023-01-17T01:22:09.183Z,95930.81
2023-01-17T01:24:54.373Z,95917.00
2023-01-17T01:27:40.069Z,95906.81
2023-01-17T01:30:25.818Z,95924.53
2023-01-17T01:33:11.268Z,95944.34
2023-01-17T01:35:38.040Z,95947.16
2023-01-17T01:38:05.111Z,95944.81
2023-01-17T01:40:31.931Z,95947.75
2023-01-17T01:43:00.659Z,95944.16
2023-01-17T01:45:30.571Z,95944.16
2023-01-17T01:48:27.392Z,95946.75
2023-01-17T01:50:54.799Z,95926.09
2023-01-17T01:53:22.018Z,95926.75
2023-01-17T01:55:51.172Z,95931.59
2023-01-17T01:58:25.111Z,95934.44
2023-01-17T02:00:52.346Z,95930.19
2023-01-17T02:03:29.578Z,95922.97
2023-01-17T02:06:04.228Z,95915.75
2023-01-17T02:08:31.825Z,95919.31
2023-01-17T02:10:58.835Z,95906.38
2023-01-17T02:13:25.736Z,95927.88
2023-01-17T02:16:06.607Z,95947.22
2023-01-17T02:18:45.447Z,95955.72
2023-01-17T02:21:23.461Z,95956.56
2023-01-17T02:23:59.568Z,95959.41
2023-01-17T02:26:51.941Z,95952.16
2023-01-17T02:29:46.315Z,95941.81
2023-01-17T02:32:35.120Z,95952.63
2023-01-17T02:35:23.717Z,95966.41
2023-01-17T02:38:16.836Z,95986.66
2023-01-17T02:40:47.960Z,95987.59
2023-01-17T02:43:17.050Z,95994.47
2023-01-17T02:45:44.156Z,95989.25
2023-01-17T02:48:14.743Z,96002.78
2023-01-17T02:51:16.804Z,95997.38
2023-01-17T02:54:02.611Z,95987.41
2023-01-17T02:57:10.937Z,95990.81
2023-01-17T02:59:56.098Z,95992.44
2023-01-17T03:02:28.945Z,95986.66
2023-01-17T03:05:09.236Z,95984.69
2023-01-17T03:07:40.108Z,95977.13
2023-01-17T03:10:08.316Z,95966.31
2023-01-17T03:12:38.802Z,95958.78
2023-01-17T03:15:13.871Z,95928.47
2023-01-17T03:17:50.847Z,95923.72
2023-01-17T03:20:18.006Z,95900.38
2023-01-17T03:22:44.750Z,95892.84
2023-01-17T03:25:11.906Z,95869.09
2023-01-17T03:27:38.773Z,95880.06
2023-01-17T03:30:06.561Z,95891.41
2023-01-17T03:32:33.301Z,95889.31
2023-01-17T03:35:00.098Z,95885.13
2023-01-17T03:37:26.904Z,95866.78
2023-01-17T03:39:53.564Z,95872.22
2023-01-17T03:42:20.562Z,95863.84
2023-01-17T03:44:47.934Z,95862.22
2023-01-17T03:47:14.728Z,95883.22
2023-01-17T03:49:41.495Z,95875.72
2023-01-17T03:52:08.464Z,95896.34
2023-01-17T03:54:35.455Z,95889.44
2023-01-17T03:57:02.359Z,95874.72
2023-01-17T03:59:29.659Z,95895.38
2023-01-17T04:01:58.586Z,95877.53
2023-01-17T04:04:25.891Z,95854.38
2023-01-17T04:06:55.294Z,95848.13
2023-01-17T04:09:22.339Z,95851.09
2023-01-17T04:11:51.195Z,95847.16
2023-01-17T04:14:18.227Z,95866.84
2023-01-17T04:16:45.407Z,95866.53
2023-01-17T04:19:13.933Z,95891.25
2023-01-17T04:21:40.878Z,95929.78
2023-01-17T04:24:07.877Z,95910.75
2023-01-17T04:26:34.940Z,95915.38
2023-01-17T04:29:04.789Z,95920.59
2023-01-17T04:31:31.960Z,95916.38
2023-01-17T04:33:58.736Z,95906.69
2023-01-17T04:36:25.627Z,95923.25
2023-01-17T04:38:52.684Z,95934.06
2023-01-17T04:41:19.643Z,95943.22
2023-01-17T04:43:46.902Z,95934.84
2023-01-17T04:46:14.272Z,95906.13
2023-01-17T04:48:41.293Z,95914.16
2023-01-17T04:51:08.223Z,95894.94
2023-01-17T04:53:35.316Z,95911.53
2023-01-17T04:56:02.376Z,95911.84
2023-01-17T04:58:30.085Z,95909.75
2023-01-17T05:01:02.145Z,95899.22
2023-01-17T05:03:29.861Z,95903.81
2023-01-17T05:05:57.108Z,95890.06
2023-01-17T05:08:24.335Z,95894.69
2023-01-17T05:10:51.078Z,95901.56
2023-01-17T05:13:18.677Z,95918.44
2023-01-17T05:15:46.765Z,95907.81
2023-01-17T05:18:18.010Z,95924.38
2023-01-17T05:20:45.297Z,95947.81
2023-01-17T05:23:12.087Z,95945.84
2023-01-17T05:25:44.641Z,95943.03
2023-01-17T05:28:13.440Z,95948.59
2023-01-17T05:30:40.532Z,95954.66
2023-01-17T05:33:08.338Z,95976.28
2023-01-17T05:35:35.302Z,95954.34
2023-01-17T05:38:02.954Z,95972.28
2023-01-17T05:40:31.518Z,95971.50
2023-01-17T05:42:59.701Z,95973.69
2023-01-17T05:45:28.448Z,95956.13
2023-01-17T05:47:56.572Z,95959.91
2023-01-17T05:50:32.428Z,95967.25
2023-01-17T05:53:03.068Z,95956.94
2023-01-17T05:55:30.962Z,95951.19
2023-01-17T05:57:57.948Z,95939.88
2023-01-17T06:00:24.813Z,95950.22
2023-01-17T06:02:55.048Z,95953.34
2023-01-17T06:05:23.073Z,95966.00
2023-01-17T06:07:50.052Z,95963.38
2023-01-17T06:10:18.994Z,95957.81
2023-01-17T06:12:46.363Z,95958.13
2023-01-17T06:15:14.603Z,95962.06
2023-01-17T06:17:41.926Z,95950.94
2023-01-17T06:20:12.072Z,95959.13
2023-01-17T06:22:38.785Z,95957.13
2023-01-17T06:25:07.541Z,95978.16
2023-01-17T06:27:34.393Z,95993.91
2023-01-17T06:30:01.294Z,95995.38
2023-01-17T06:32:28.116Z,96008.34
2023-01-17T06:34:54.989Z,95964.06
2023-01-17T06:37:21.673Z,95955.81
2023-01-17T06:39:49.248Z,95940.88
2023-01-17T06:42:16.275Z,95968.00
2023-01-17T06:44:43.256Z,95971.28
2023-01-17T06:47:09.972Z,95975.88
2023-01-17T06:49:36.812Z,95975.56
2023-01-17T06:52:04.117Z,95996.69
2023-01-17T06:54:30.835Z,95987.00
2023-01-17T06:56:57.563Z,95980.44
2023-01-17T06:59:24.369Z,95958.63
2023-01-17T07:01:51.248Z,95962.72
2023-01-17T07:04:17.879Z,95970.94
2023-01-17T07:06:44.917Z,95987.69
2023-01-17T07:09:12.601Z,96006.06
2023-01-17T07:11:39.302Z,95982.94
2023-01-17T07:14:06.015Z,95978.97
2023-01-17T07:16:34.179Z,96001.50
2023-01-17T07:19:01.014Z,96007.09
2023-01-17T07:21:27.907Z,95994.75
2023-01-17T07:23:54.724Z,95999.00
2023-01-17T07:26:21.724Z,95986.38
2023-01-17T07:28:48.534Z,95998.84
2023-01-17T07:31:15.259Z,96000.81
2023-01-17T07:33:41.932Z,95996.22
2023-01-17T07:36:09.476Z,95991.94
2023-01-17T07:38:36.421Z,95991.28
2023-01-17T07:41:06.965Z,95984.19
2023-01-17T07:43:35.659Z,95969.91
2023-01-17T07:46:02.461Z,95978.63
2023-01-17T07:48:30.826Z,95984.38
2023-01-17T07:50:58.538Z,95993.56
2023-01-17T07:53:27.121Z,95988.81
2023-01-17T07:55:54.469Z,95991.28
2023-01-17T07:58:22.069Z,96004.09
2023-01-17T08:00:49.044Z,96010.66
2023-01-17T08:03:17.536Z,96031.66
2023-01-17T08:05:53.100Z,96007.00
2023-01-17T08:08:21.577Z,96013.22
2023-01-17T08:10:49.560Z,96017.19
2023-01-17T08:13:16.268Z,96011.25
2023-01-17T08:15:43.124Z,96026.09
2023-01-17T08:18:10.019Z,96013.41
2023-01-17T08:20:36.739Z,96012.25
2023-01-17T08:23:03.449Z,96011.78
2023-01-17T08:25:30.207Z,96023.13
2023-01-17T08:27:58.146Z,96013.94
2023-01-17T08:30:24.925Z,96029.06
2023-01-17T08:32:51.903Z,96008.69
2023-01-17T08:35:20.198Z,96004.91
2023-01-17T08:37:48.602Z,96009.53
2023-01-17T08:40:18.126Z,96024.63
2023-01-17T08:42:45.559Z,96034.66
2023-01-17T08:45:14.954Z,96026.47
2023-01-17T08:47:41.805Z,96028.75
2023-01-17T08:50:09.305Z,96031.69
2023-01-17T08:52:36.372Z,96030.84
2023-01-17T08:55:05.954Z,96041.53
2023-01-17T08:57:33.442Z,96042.47
2023-01-17T09:00:00.400Z,96046.09
2023-01-17T09:02:27.111Z,96049.03
2023-01-17T09:04:53.881Z,96051.66
2023-01-17T09:07:21.292Z,96036.53
2023-01-17T09:09:49.018Z,96040.44
2023-01-17T09:12:15.999Z,96030.88
2023-01-17T09:14:42.752Z,96024.94
2023-01-17T09:17:09.367Z,96024.13
2023-01-17T09:19:38.930Z,96038.38
2023-01-17T09:22:06.785Z,96038.06
2023-01-17T09:24:36.079Z,96042.31
2023-01-17T09:27:04.073Z,96037.94
2023-01-17T09:29:31.067Z,96042.13
2023-01-17T09:31:57.912Z,96034.25
2023-01-17T09:34:25.078Z,96035.66
2023-01-17T09:36:51.851Z,96034.16
2023-01-17T09:39:21.751Z,96034.38
2023-01-17T09:42:00.969Z,96010.97
2023-01-17T09:44:46.673Z,96026.31
2023-01-17T09:47:33.821Z,96016.94
2023-01-17T09:50:20.802Z,96011.31
2023-01-17T09:52:47.694Z,96003.38
2023-01-17T09:55:19.747Z,96002.66
2023-01-17T09:57:52.325Z,96006.31
2023-01-17T10:00:54.187Z,95999.03
2023-01-17T10:03:37.701Z,95987.78
2023-01-17T10:06:25.208Z,95971.41
2023-01-17T10:08:59.799Z,95991.16
2023-01-17T10:11:53.177Z,95987.06
2023-01-17T10:14:23.294Z,95976.72
2023-01-17T10:17:04.810Z,95988.06
2023-01-17T10:19:43.613Z,95993.09
2023-01-17T10:22:33.047Z,95989.38
2023-01-17T10:25:14.780Z,95985.91
2023-01-17T10:27:50.991Z,95980.91
2023-01-17T10:30:35.166Z,95981.72
2023-01-17T10:33:24.079Z,95973.16
2023-01-17T10:35:59.652Z,95980.91
2023-01-17T10:38:48.158Z,95966.16
2023-01-17T10:41:24.463Z,95973.47
2023-01-17T10:44:04.696Z,95969.91
2023-01-17T10:46:52.790Z,95969.09
2023-01-17T10:49:26.180Z,95974.38
2023-01-17T10:52:02.056Z,95980.91
2023-01-17T10:54:56.681Z,95979.09
2023-01-17T10:57:27.199Z,95973.28
2023-01-17T10:59:59.341Z,95960.00
2023-01-17T11:02:33.066Z,95970.75
2023-01-17T11:05:09.858Z,95974.53
2023-01-17T11:07:48.159Z,95974.47
2023-01-17T11:10:40.188Z,95969.53
2023-01-17T11:13:25.407Z,95967.81
2023-01-17T11:15:59.706Z,95959.72
2023-01-17T11:18:35.828Z,95964.25
2023-01-17T11:21:23.381Z,95952.66
2023-01-17T11:23:52.682Z,95940.53
2023-01-17T11:26:33.364Z,95937.69
2023-01-17T11:29:20.249Z,95941.72
2023-01-17T11:31:47.065Z,95947.00
2023-01-17T11:34:18.079Z,95933.69
2023-01-17T11:36:45.395Z,95925.00
2023-01-17T11:39:18.073Z,95930.53
2023-01-17T11:41:47.933Z,95924.19
2023-01-17T11:44:32.531Z,95929.72
2023-01-17T11:47:14.555Z,95914.81
2023-01-17T11:49:45.434Z,95931.69
2023-01-17T11:52:36.605Z,95913.34
2023-01-17T11:55:03.395Z,95912.03
2023-01-17T11:57:33.492Z,95902.41
2023-01-17T12:00:02.779Z,95906.53
2023-01-17T12:02:58.189Z,95908.88
2023-01-17T12:05:40.437Z,95906.44
2023-01-17T12:08:35.033Z,95902.50
2023-01-17T12:11:14.796Z,95910.09
2023-01-17T12:14:02.946Z,95905.25
2023-01-17T12:16:57.531Z,95893.47
2023-01-17T12:19:43.789Z,95889.56
2023-01-17T12:22:37.724Z,95886.53
2023-01-17T12:25:22.584Z,95881.13
2023-01-17T12:28:07.512Z,95879.06
2023-01-17T12:31:00.462Z,95875.72
2023-01-17T12:33:53.511Z,95873.84
2023-01-17T12:36:36.780Z,95883.22
2023-01-17T12:39:07.916Z,95876.34
2023-01-17T12:41:46.309Z,95875.22
2023-01-17T12:44:17.159Z,95865.53
2023-01-17T12:46:49.530Z,95870.59
2023-01-17T12:49:21.483Z,95872.50
2023-01-17T12:52:05.738Z,95879.13
2023-01-17T12:54:45.455Z,95879.50
2023-01-17T12:57:18.889Z,95886.53
2023-01-17T13:00:12.713Z,95872.41
2023-01-17T13:02:49.932Z,95878.03
2023-01-17T13:05:26.127Z,95864.69
2023-01-17T13:08:02.049Z,95873.19
2023-01-17T13:10:30.948Z,95879.66
2023-01-17T13:13:03.505Z,95881.72
2023-01-17T13:15:37.671Z,95890.91
2023-01-17T13:18:17.492Z,95880.53
2023-01-17T13:21:14.505Z,95891.22
2023-01-17T13:23:56.655Z,95884.13
2023-01-17T13:26:40.343Z,95898.22
2023-01-17T13:29:52.408Z,95895.84
2023-01-17T13:32:37.539Z,95883.75
2023-01-17T13:35:42.172Z,95866.81
2023-01-17T13:38:34.918Z,95881.50
2023-01-17T13:41:16.310Z,95874.94
2023-01-17T13:44:06.059Z,95864.19
2023-01-17T13:46:56.305Z,95861.34
2023-01-17T13:49:29.212Z,95869.66
2023-01-17T13:52:10.936Z,95868.72
2023-01-17T13:54:46.268Z,95873.94
2023-01-17T13:57:29.991Z,95881.41
2023-01-17T13:59:59.226Z,95892.59
2023-01-17T14:02:32.128Z,95880.22
2023-01-17T14:05:24.229Z,95890.28
2023-01-17T14:08:14.377Z,95881.13
2023-01-17T14:10:54.705Z,95885.31
2023-01-17T14:13:35.495Z,95878.03
2023-01-17T14:16:06.597Z,95888.16
2023-01-17T14:18:36.958Z,95869.47
2023-01-17T14:21:31.940Z,95871.88
2023-01-17T14:24:15.276Z,95867.75
2023-01-17T14:26:57.774Z,95872.31
2023-01-17T14:29:42.738Z,95867.75
2023-01-17T14:32:15.694Z,95862.59
2023-01-17T14:34:45.248Z,95851.41
2023-01-17T14:37:33.041Z,95871.28
2023-01-17T14:40:01.084Z,95864.59
2023-01-17T14:42:30.617Z,95873.72
2023-01-17T14:45:07.720Z,95857.91
2023-01-17T14:47:41.478Z,95856.53
2023-01-17T14:50:21.069Z,95861.44
2023-01-17T14:53:14.129Z,95873.66
2023-01-17T14:55:57.800Z,95854.34
2023-01-17T14:58:33.421Z,95865.91
2023-01-17T15:01:13.378Z,95876.03
2023-01-17T15:03:50.151Z,95869.47
2023-01-17T15:06:23.197Z,95867.50
2023-01-17T15:08:54.834Z,95872.84
2023-01-17T15:11:30.598Z,95868.88
2023-01-17T15:13:59.473Z,95859.22
2023-01-17T15:16:28.938Z,95851.50
2023-01-17T15:18:57.531Z,95858.75
2023-01-17T15:21:40.891Z,95864.25
2023-01-17T15:24:13.470Z,95853.88
2023-01-17T15:26:43.496Z,95862.34
2023-01-17T15:29:17.664Z,95858.69
2023-01-17T15:31:52.594Z,95861.94
2023-01-17T15:34:30.386Z,95861.69
2023-01-17T15:37:00.128Z,95863.31
2023-01-17T15:39:32.900Z,95853.56
2023-01-17T15:42:03.094Z,95843.00
2023-01-17T15:44:48.088Z,95859.28
2023-01-17T15:47:31.636Z,95839.44
2023-01-17T15:50:00.891Z,95850.00
2023-01-17T15:52:29.184Z,95856.16
2023-01-17T15:55:13.886Z,95852.25
2023-01-17T15:57:40.981Z,95860.56
2023-01-17T16:00:13.715Z,95854.09
2023-01-17T16:02:45.581Z,95858.56
2023-01-17T16:05:30.974Z,95869.41
2023-01-17T16:08:02.642Z,95857.91
2023-01-17T16:10:32.112Z,95854.00
2023-01-17T16:13:00.857Z,95875.13
2023-01-17T16:15:29.427Z,95881.41
2023-01-17T16:18:04.879Z,95871.13
2023-01-17T16:20:39.439Z,95875.94
2023-01-17T16:23:06.803Z,95875.00
2023-01-17T16:25:33.618Z,95864.81
2023-01-17T16:28:01.640Z,95866.06
2023-01-17T16:30:29.770Z,95862.69
2023-01-17T16:33:01.776Z,95874.63
2023-01-17T16:35:32.462Z,95874.09
2023-01-17T16:38:05.441Z,95884.94
2023-01-17T16:40:39.059Z,95882.09
2023-01-17T16:43:06.011Z,95880.22
2023-01-17T16:45:40.532Z,95864.38
2023-01-17T16:48:08.095Z,95868.38
2023-01-17T16:50:34.984Z,95871.09
2023-01-17T16:53:01.659Z,95869.31
2023-01-17T16:55:28.408Z,95878.41
2023-01-17T16:57:58.255Z,95889.56
2023-01-17T17:00:26.991Z,95890.03
2023-01-17T17:02:54.258Z,95906.50
2023-01-17T17:05:21.041Z,95913.75
2023-01-17T17:07:51.530Z,95905.03
2023-01-17T17:10:20.768Z,95911.88
2023-01-17T17:12:48.230Z,95911.88
2023-01-17T17:15:15.201Z,95927.03
2023-01-17T17:17:43.682Z,95923.22
2023-01-17T17:20:14.147Z,95915.47
2023-01-17T17:22:45.756Z,95914.19
2023-01-17T17:25:13.444Z,95917.75
2023-01-17T17:27:40.314Z,95923.84
2023-01-17T17:30:08.364Z,95916.22
2023-01-17T17:32:35.355Z,95933.75
2023-01-17T17:35:02.100Z,95908.00
2023-01-17T17:37:29.344Z,95897.91
2023-01-17T17:39:57.022Z,95892.75
2023-01-17T17:42:24.073Z,95892.50
2023-01-17T17:44:50.981Z,95904.94
2023-01-17T17:47:18.114Z,95894.13
2023-01-17T17:49:45.221Z,95901.59
2023-01-17T17:52:12.357Z,95896.03
2023-01-17T17:54:39.062Z,95907.22
2023-01-17T17:57:06.848Z,95892.19
2023-01-17T17:59:34.304Z,95881.66
2023-01-17T18:02:01.408Z,95887.84
2023-01-17T18:04:31.073Z,95879.31
2023-01-17T18:06:58.422Z,95876.56
2023-01-17T18:09:25.612Z,95867.84
2023-01-17T18:11:52.763Z,95855.38
2023-01-17T18:14:21.356Z,95852.47
2023-01-17T18:16:48.488Z,95870.59
2023-01-17T18:19:18.909Z,95854.19
2023-01-17T18:21:45.955Z,95851.09
2023-01-17T18:24:14.806Z,95856.38
2023-01-17T18:26:46.895Z,95868.56
2023-01-17T18:29:15.940Z,95855.00
2023-01-17T18:31:47.662Z,95846.50
2023-01-17T18:34:17.129Z,95852.94
2023-01-17T18:36:44.699Z,95842.03
2023-01-17T18:39:14.537Z,95853.03
2023-01-17T18:41:41.655Z,95861.31
2023-01-17T18:44:09.162Z,95855.50
2023-01-17T18:46:36.747Z,95867.22
2023-01-17T18:49:04.739Z,95874.19
2023-01-17T18:51:32.704Z,95860.66
2023-01-17T18:54:05.902Z,95836.56
2023-01-17T18:56:34.338Z,95855.81
2023-01-17T18:59:02.004Z,95838.09
2023-01-17T19:01:33.600Z,95841.94
2023-01-17T19:04:04.230Z,95839.63
2023-01-17T19:06:37.625Z,95828.16
2023-01-17T19:09:05.145Z,95819.53
2023-01-17T19:11:32.243Z,95814.03
2023-01-17T19:13:59.283Z,95807.84
2023-01-17T19:16:29.653Z,95796.03
2023-01-17T19:18:58.080Z,95785.34
2023-01-17T19:21:27.607Z,95765.00
2023-01-17T19:23:56.263Z,95747.41
2023-01-17T19:26:26.695Z,95747.09
2023-01-17T19:28:56.545Z,95755.50
2023-01-17T19:31:26.514Z,95769.47
2023-01-17T19:33:57.519Z,95769.16
2023-01-17T19:36:31.807Z,95768.41
2023-01-17T19:39:04.946Z,95771.06
2023-01-17T19:41:35.506Z,95768.47
2023-01-17T19:44:05.297Z,95764.16
2023-01-17T19:46:32.723Z,95767.06
2023-01-17T19:49:00.657Z,95758.56
2023-01-17T19:51:28.238Z,95754.84
2023-01-17T19:53:55.220Z,95750.59
2023-01-17T19:56:25.145Z,95745.09
2023-01-17T19:58:52.667Z,95746.50
2023-01-17T20:01:26.909Z,95736.56
2023-01-17T20:03:56.059Z,95764.22
2023-01-17T20:06:30.098Z,95748.00
2023-01-17T20:08:59.884Z,95777.81
2023-01-17T20:11:27.735Z,95778.47
2023-01-17T20:13:55.719Z,95790.41
2023-01-17T20:16:25.242Z,95796.94
2023-01-17T20:18:53.382Z,95791.22
2023-01-17T20:21:23.875Z,95797.31
2023-01-17T20:23:53.067Z,95823.09
2023-01-17T20:26:25.801Z,95829.25
2023-01-17T20:28:53.574Z,95827.88
2023-01-17T20:31:22.914Z,95845.09
2023-01-17T20:33:51.046Z,95835.03
2023-01-17T20:36:19.780Z,95843.97
2023-01-17T20:38:46.883Z,95854.53
2023-01-17T20:41:21.356Z,95861.56
2023-01-17T20:43:56.033Z,95849.63
2023-01-17T20:46:26.114Z,95863.59
2023-01-17T20:48:55.233Z,95859.75
2023-01-17T20:51:24.741Z,95871.50
2023-01-17T20:53:55.968Z,95873.88
2023-01-17T20:56:23.339Z,95878.53
2023-01-17T20:58:52.750Z,95876.63
2023-01-17T21:01:21.410Z,95862.91
2023-01-17T21:03:52.107Z,95866.81
2023-01-17T21:06:20.182Z,95862.19
2023-01-17T21:08:48.204Z,95853.53
2023-01-17T21:11:19.089Z,95843.75
2023-01-17T21:13:48.835Z,95839.19
2023-01-17T21:16:20.479Z,95845.28
2023-01-17T21:18:48.978Z,95849.75
2023-01-17T21:21:18.960Z,95839.56
2023-01-17T21:23:49.606Z,95843.00
2023-01-17T21:26:17.923Z,95849.53
2023-01-17T21:28:47.562Z,95835.66
2023-01-17T21:31:23.319Z,95838.28
2023-01-17T21:34:08.363Z,95847.28
2023-01-17T21:36:40.843Z,95848.84
2023-01-17T21:39:12.887Z,95838.72
2023-01-17T21:41:41.992Z,95844.47
2023-01-17T21:44:14.065Z,95830.47
2023-01-17T21:46:41.613Z,95827.09
2023-01-17T21:49:13.100Z,95813.88
2023-01-17T21:51:53.649Z,95816.09
2023-01-17T21:54:44.535Z,95817.19
2023-01-17T21:57:40.705Z,95805.53
2023-01-17T22:00:14.725Z,95824.25
2023-01-17T22:02:42.145Z,95800.03
2023-01-17T22:05:10.187Z,95797.72
2023-01-17T22:07:39.113Z,95791.63
2023-01-17T22:10:07.118Z,95782.84
2023-01-17T22:12:33.985Z,95793.28
2023-01-17T22:15:00.868Z,95781.34
2023-01-17T22:17:29.530Z,95799.59
2023-01-17T22:19:56.315Z,95786.00
2023-01-17T22:22:22.983Z,95779.59
2023-01-17T22:24:50.677Z,95776.06
2023-01-17T22:27:17.626Z,95767.78
2023-01-17T22:29:44.441Z,95772.03
2023-01-17T22:32:11.336Z,95750.16
2023-01-17T22:34:38.288Z,95728.44
2023-01-17T22:37:10.177Z,95737.69
2023-01-17T22:39:38.861Z,95737.59
2023-01-17T22:42:07.927Z,95734.16
2023-01-17T22:44:34.735Z,95732.16
2023-01-17T22:47:01.634Z,95732.59
2023-01-17T22:49:28.644Z,95721.25
2023-01-17T22:51:55.320Z,95705.34
2023-01-17T22:54:22.608Z,95730.03
2023-01-17T22:56:49.621Z,95721.81
2023-01-17T22:59:16.439Z,95712.25
2023-01-17T23:01:43.607Z,95716.19
2023-01-17T23:04:13.964Z,95705.34
2023-01-17T23:06:41.838Z,95705.34
2023-01-17T23:09:12.646Z,95702.44
2023-01-17T23:11:47.399Z,95703.25
2023-01-17T23:14:53.523Z,95710.16
2023-01-17T23:17:40.834Z,95710.91
2023-01-17T23:20:10.597Z,95710.03
2023-01-17T23:22:38.212Z,95713.19
2023-01-17T23:25:07.202Z,95696.09
2023-01-17T23:27:55.695Z,95697.72
2023-01-17T23:30:25.311Z,95687.13
2023-01-17T23:32:54.371Z,95674.50
2023-01-17T23:35:25.484Z,95692.00
2023-01-17T23:38:11.230Z,95690.84
2023-01-17T23:40:39.470Z,95683.38
2023-01-17T23:43:25.738Z,95668.09
2023-01-17T23:45:54.845Z,95689.72
2023-01-17T23:48:26.658Z,95691.34
2023-01-17T23:50:58.876Z,95671.25
2023-01-17T23:53:26.191Z,95673.38
2023-01-17T23:55:55.329Z,95669.72
2023-01-17T23:58:25.923Z,95685.22
